Página principal
METAR-TAF:

METAR-TAF

Aeroportos :

Balkhash, Cazaquistão

latitude: 46-53-38N, longitude: 075-00-19E, altura: 440 m

Observação actual do tempo

O boletim foi feito há 8 horas e 28 minutos, às 11:00 UTC
Vento 16 kt de es-nordeste
Temperatura -7°C
Humidade 79%
Pressão 1026 hPa
Visibilidade 10 km ou mais
Neve baixa levantada pelo vento

METAR: UAAH 231100Z 07008MPS 9999 DRSN NSC M07/M10 Q1026 NOSIG RMK QFE732/0976

Hora: 01:28 (19:28 UTC)

Previsão

O boletim foi feito há 8 horas e 27 minutos, às 11:01 UTC
Previsão válida de 23 às 12 UTC a 23 às 21 UTC
Vento 14 kt de es-nordeste
Visibilidade 10 km ou mais
sem nuvens abaixo de 1500 metros e sem cumulonimbus

TAF: UAAH 231101Z 2312/2321 06007MPS CAVOK

Observações e previsões do tempo de mais de 4000 aeroportos (mensagens METAR e TAF).

As estações disponíveis são os pontos amarelos e vermelhos sobre o mapa.

Mova o rato sobre o mapa para ver o nome da estação.

Depois clique no ponto para visualizar as observações e previsões meteorológicas.

Para alterar o mapa : clique nos botões verdes com uma cruz preta para aumentar o zoom; no botão verde com uma pitada de zoom; ou nas setas verdes para mapas adjacentes.


METAR-TAF: